Time;durP1;ratioP1;P1;durP2;ratioP2;P2;SDS_P1;SDS_P2;PMS_P1;PMS_P2;Temp;Humidity;BMP_temperature;BMP_pressure;BME280_temperature;BME280_humidity;BME280_pressure;Samples;Min_cycle;Max_cycle;Signal;HPM_P1;HPM_P2
2022/07/26 00:02:21;;;;;;;16.37;14.57;;;;;;;23.67;70.39;94656.31;5031995;28;20949;-80
2022/07/26 00:04:47;;;;;;;17.80;15.70;;;;;;;23.89;68.95;94656.78;5035478;28;20455;-81
2022/07/26 00:07:14;;;;;;;14.63;13.10;;;;;;;24.02;68.94;94654.81;5035761;28;20492;-81
2022/07/26 00:09:42;;;;;;;22.00;15.67;;;;;;;24.09;68.40;94644.84;5036424;28;20842;-81
2022/07/26 00:12:09;;;;;;;15.80;14.13;;;;;;;24.26;68.25;94644.28;5035852;28;20507;-81
2022/07/26 00:14:37;;;;;;;16.20;14.27;;;;;;;24.35;66.69;94643.00;5035645;28;20446;-81
2022/07/26 00:17:05;;;;;;;18.33;14.17;;;;;;;24.35;66.93;94651.88;5035641;28;20450;-79
2022/07/26 00:19:32;;;;;;;16.80;15.00;;;;;;;24.32;66.59;94656.88;5035707;28;20453;-81
2022/07/26 00:24:43;;;;;;;14.80;13.33;;;;;;;24.71;65.94;94656.47;5035841;28;20433;-81
2022/07/26 00:27:09;;;;;;;14.63;13.10;;;;;;;24.87;64.70;94652.38;5035424;28;20490;-80
2022/07/26 00:29:37;;;;;;;15.70;14.10;;;;;;;25.05;64.14;94654.25;5035326;28;20976;-81
2022/07/26 00:32:05;;;;;;;14.40;13.00;;;;;;;25.24;63.40;94642.44;5035553;28;20442;-80
2022/07/26 00:34:32;;;;;;;15.70;14.20;;;;;;;25.35;62.81;94637.34;5035373;28;20824;-81
2022/07/26 00:36:59;;;;;;;16.30;14.57;;;;;;;25.47;61.99;94644.41;5035146;28;20450;-81
2022/07/26 00:39:25;;;;;;;24.13;13.10;;;;;;;25.58;61.83;94646.31;5036310;28;20500;-80
2022/07/26 00:41:52;;;;;;;17.27;14.33;;;;;;;25.69;61.35;94650.13;5035302;28;20457;-82
2022/07/26 00:44:19;;;;;;;15.57;14.07;;;;;;;25.73;60.86;94645.91;5035478;28;20458;-81
2022/07/26 00:46:47;;;;;;;17.80;13.17;;;;;;;25.89;60.29;94645.25;5035195;28;20486;-80
2022/07/26 00:49:14;;;;;;;16.37;14.20;;;;;;;26.03;59.70;94647.75;5034926;28;20454;-80
2022/07/26 00:51:41;;;;;;;15.43;13.80;;;;;;;26.06;59.67;94637.34;5034988;28;20443;-79
2022/07/26 00:54:08;;;;;;;15.10;13.50;;;;;;;26.12;59.62;94638.28;5034884;28;20517;-81
2022/07/26 00:56:35;;;;;;;14.70;13.30;;;;;;;26.14;59.14;94639.69;5035109;28;20569;-81
2022/07/26 00:59:02;;;;;;;15.23;13.83;;;;;;;26.06;59.53;94639.22;5016536;28;20439;-81
2022/07/26 01:01:29;;;;;;;19.00;15.20;;;;;;;25.75;60.50;94643.84;5035082;28;20443;-82
2022/07/26 01:03:57;;;;;;;16.37;14.37;;;;;;;25.65;60.82;94643.53;5034815;28;20469;-81
2022/07/26 01:06:24;;;;;;;15.53;13.93;;;;;;;25.27;62.10;94650.06;5034930;28;20524;-81
2022/07/26 01:08:51;;;;;;;21.40;14.17;;;;;;;25.02;63.49;94639.41;5034678;28;20488;-81
2022/07/26 01:11:18;;;;;;;16.00;14.50;;;;;;;24.91;64.11;94636.63;5034733;28;20447;-81
2022/07/26 01:13:49;;;;;;;15.17;13.67;;;;;;;24.91;64.52;94639.31;5034143;28;20446;-81
2022/07/26 01:16:16;;;;;;;14.80;13.30;;;;;;;24.91;64.19;94637.47;4999231;28;20446;-81
2022/07/26 01:18:43;;;;;;;16.70;15.10;;;;;;;24.97;64.21;94641.09;5034736;28;20454;-80
2022/07/26 01:21:12;;;;;;;15.60;14.10;;;;;;;25.02;64.11;94646.66;5034796;28;20450;-80
2022/07/26 01:23:40;;;;;;;17.03;13.40;;;;;;;25.12;64.06;94630.81;5034325;28;20455;-81
2022/07/26 01:26:07;;;;;;;14.90;13.00;;;;;;;25.18;63.38;94635.31;5034261;28;20470;-81
2022/07/26 01:28:36;;;;;;;20.73;15.53;;;;;;;25.12;63.75;94633.50;5034309;28;20486;-81
2022/07/26 01:31:03;;;;;;;17.40;15.57;;;;;;;25.00;64.18;94635.31;5034031;28;20450;-81
2022/07/26 01:33:30;;;;;;;16.57;14.97;;;;;;;24.93;64.34;94629.19;4999533;28;20439;-80
2022/07/26 01:35:58;;;;;;;16.33;14.67;;;;;;;24.81;65.30;94630.97;5034182;28;20859;-82
2022/07/26 01:38:25;;;;;;;15.00;13.43;;;;;;;24.84;65.20;94634.00;5034438;28;20446;-81
2022/07/26 01:40:53;;;;;;;16.07;14.37;;;;;;;24.90;65.12;94629.63;5033998;28;20500;-79
2022/07/26 01:43:20;;;;;;;14.90;13.30;;;;;;;25.14;64.16;94627.91;5033949;28;20454;-80
2022/07/26 01:45:47;;;;;;;15.23;13.87;;;;;;;25.00;64.98;94620.03;5033877;28;20933;-81
2022/07/26 01:48:14;;;;;;;16.13;14.33;;;;;;;24.94;64.99;94626.28;5033842;28;20489;-81
2022/07/26 01:50:41;;;;;;;16.10;14.50;;;;;;;24.85;65.60;94627.59;5033850;28;20474;-81
2022/07/26 01:53:07;;;;;;;18.27;14.60;;;;;;;24.80;65.84;94632.81;5034065;28;20831;-81
2022/07/26 01:55:34;;;;;;;16.87;14.23;;;;;;;24.74;66.31;94646.31;5033821;28;20450;-82
2022/07/26 01:58:03;;;;;;;18.13;14.97;;;;;;;24.68;66.07;94630.06;5033741;28;20442;-80
2022/07/26 02:00:31;;;;;;;16.53;14.97;;;;;;;24.60;66.38;94635.75;5033814;28;20458;-82
2022/07/26 02:02:58;;;;;;;15.30;13.70;;;;;;;24.41;67.48;94636.75;5032614;28;20527;-80
2022/07/26 02:05:25;;;;;;;16.27;14.43;;;;;;;24.47;67.37;94641.22;4998987;28;20454;-80
2022/07/26 02:07:52;;;;;;;15.20;13.60;;;;;;;24.68;66.62;94637.31;5033588;28;20893;-81
2022/07/26 02:10:19;;;;;;;15.67;14.10;;;;;;;24.85;66.10;94642.88;5033653;28;20438;-81
2022/07/26 02:12:45;;;;;;;15.20;13.70;;;;;;;24.93;65.67;94639.91;5033364;28;20784;-80
2022/07/26 02:15:15;;;;;;;18.30;15.63;;;;;;;24.95;65.28;94645.88;4998842;28;20454;-81
2022/07/26 02:17:42;;;;;;;17.73;14.47;;;;;;;24.97;65.41;94652.66;5033684;28;20457;-81
2022/07/26 02:20:10;;;;;;;17.50;13.90;;;;;;;24.95;65.15;94648.56;5033444;28;20469;-81
2022/07/26 02:22:36;;;;;;;14.90;13.50;;;;;;;24.99;65.17;94647.09;5033146;28;20855;-81
2022/07/26 02:25:04;;;;;;;15.00;13.47;;;;;;;24.94;65.16;94654.97;5033149;28;20427;-79
2022/07/26 02:27:31;;;;;;;20.33;14.17;;;;;;;24.93;65.32;94651.47;5032641;28;20564;-81
2022/07/26 02:29:57;;;;;;;16.83;15.13;;;;;;;24.96;64.90;94650.22;5033113;28;20442;-80
2022/07/26 02:32:26;;;;;;;16.33;14.73;;;;;;;24.83;65.48;94634.25;5033039;28;20528;-81
2022/07/26 02:34:52;;;;;;;14.80;13.40;;;;;;;24.76;65.40;94638.88;5033042;28;20449;-81
2022/07/26 02:37:19;;;;;;;17.20;14.43;;;;;;;24.64;66.05;94647.66;5033226;28;20442;-81
2022/07/26 02:39:46;;;;;;;25.57;16.80;;;;;;;24.57;66.34;94646.06;5032670;28;20447;-81
2022/07/26 02:42:13;;;;;;;20.37;14.30;;;;;;;24.65;65.68;94648.50;4998200;28;20438;-81
2022/07/26 02:44:40;;;;;;;16.80;15.20;;;;;;;24.65;65.90;94643.94;5033024;28;20975;-81
2022/07/26 02:47:07;;;;;;;15.67;14.00;;;;;;;24.65;65.84;94638.56;5032722;28;20509;-80
2022/07/26 02:49:35;;;;;;;17.63;14.63;;;;;;;24.58;66.04;94637.84;5032781;28;20477;-80
2022/07/26 02:52:02;;;;;;;16.47;14.60;;;;;;;24.44;66.61;94644.38;5014239;28;20430;-81
2022/07/26 02:54:28;;;;;;;15.73;14.07;;;;;;;24.36;67.16;94647.34;5032701;28;20454;-81
2022/07/26 02:56:55;;;;;;;17.30;14.80;;;;;;;24.40;67.23;94638.63;5032618;28;20453;-81
2022/07/26 02:59:22;;;;;;;17.90;14.40;;;;;;;24.47;66.64;94641.22;5032858;28;20450;-81
2022/07/26 03:01:49;;;;;;;14.43;12.93;;;;;;;24.56;66.13;94645.25;5032613;28;20506;-82
2022/07/26 03:04:16;;;;;;;16.33;14.73;;;;;;;24.70;65.46;94657.50;5032495;28;20442;-82
2022/07/26 03:06:44;;;;;;;16.37;14.30;;;;;;;24.76;65.58;94652.28;5031958;28;20458;-81
2022/07/26 03:09:11;;;;;;;17.30;15.60;;;;;;;24.80;65.26;94648.09;5033231;28;20778;-82
2022/07/26 03:11:37;;;;;;;19.33;13.67;;;;;;;24.74;65.35;94654.38;5033083;28;20469;-82
2022/07/26 03:14:04;;;;;;;20.60;15.70;;;;;;;24.71;65.34;94656.47;5032342;28;20496;-84
2022/07/26 03:16:31;;;;;;;16.30;14.80;;;;;;;24.56;65.86;94657.84;5032549;28;20501;-79
2022/07/26 03:18:58;;;;;;;16.70;14.00;;;;;;;24.44;67.90;94660.47;5032414;28;20446;-82
2022/07/26 03:21:25;;;;;;;18.97;14.90;;;;;;;24.44;67.31;94668.50;4997053;28;20431;-83
2022/07/26 03:23:53;;;;;;;16.90;14.93;;;;;;;24.45;66.59;94670.16;5032447;28;20455;-83
2022/07/26 03:26:20;;;;;;;16.77;14.97;;;;;;;24.30;66.53;94669.69;5032190;28;20934;-82
2022/07/26 03:28:47;;;;;;;19.33;16.00;;;;;;;24.17;66.86;94675.13;5032288;28;20489;-81
2022/07/26 03:31:14;;;;;;;18.07;15.80;;;;;;;24.06;68.22;94673.97;5032316;28;20446;-81
2022/07/26 03:33:41;;;;;;;16.57;14.97;;;;;;;23.98;70.52;94675.03;5031902;28;20450;-79
2022/07/26 03:36:09;;;;;;;17.10;15.30;;;;;;;24.02;70.66;94680.81;4997582;28;20443;-81
2022/07/26 03:38:36;;;;;;;17.00;15.30;;;;;;;24.00;69.19;94681.03;5032352;28;20913;-81
2022/07/26 03:41:04;;;;;;;18.10;16.30;;;;;;;23.94;68.59;94681.06;5013648;28;20443;-81
2022/07/26 03:43:31;;;;;;;15.97;14.40;;;;;;;23.86;70.40;94674.09;5030941;28;20470;-81
2022/07/26 03:45:58;;;;;;;18.00;14.20;;;;;;;23.77;69.85;94665.53;5013050;28;20447;-81
2022/07/26 03:48:25;;;;;;;19.50;16.67;;;;;;;23.71;70.64;94669.06;5032330;28;20478;-84
2022/07/26 03:50:51;;;;;;;21.13;15.00;;;;;;;23.66;70.78;94668.88;5031959;28;20486;-84
2022/07/26 03:53:18;;;;;;;15.97;14.30;;;;;;;23.64;70.80;94670.13;5031960;28;20949;-81
2022/07/26 03:58:30;;;;;;;17.30;15.13;;;;;;;23.66;71.10;94670.72;5002408;28;20429;-83
2022/07/26 04:00:57;;;;;;;15.97;14.37;;;;;;;23.75;71.85;94674.81;5031538;28;20447;-81
2022/07/26 04:03:24;;;;;;;16.37;14.67;;;;;;;24.03;72.22;94664.50;5032108;28;20798;-82
2022/07/26 04:05:51;;;;;;;17.60;13.93;;;;;;;24.50;69.97;94664.94;5031769;28;20442;-82
2022/07/26 04:08:18;;;;;;;15.57;13.97;;;;;;;24.97;67.73;94666.09;5032261;28;20541;-79
2022/07/26 04:10:46;;;;;;;15.57;14.07;;;;;;;25.40;65.01;94659.78;5031622;28;20950;-80
2022/07/26 04:13:12;;;;;;;17.80;13.60;;;;;;;25.79;64.41;94677.28;5031770;28;20451;-82
2022/07/26 04:15:41;;;;;;;16.00;14.30;;;;;;;26.21;62.29;94663.78;5031633;28;20450;-81
2022/07/26 04:18:07;;;;;;;14.07;12.83;;;;;;;26.45;60.83;94665.47;5031921;28;20504;-78
2022/07/26 04:20:34;;;;;;;15.23;13.60;;;;;;;26.83;59.18;94661.47;5031557;28;20443;-80
2022/07/26 04:23:01;;;;;;;14.97;13.57;;;;;;;26.91;58.52;94657.63;5031718;28;20465;-80
2022/07/26 04:25:28;;;;;;;15.13;13.67;;;;;;;27.01;57.73;94657.84;5031333;28;20450;-81
2022/07/26 04:27:55;;;;;;;15.87;14.30;;;;;;;27.02;57.62;94660.31;5032527;28;20494;-84
2022/07/26 04:30:22;;;;;;;15.23;13.83;;;;;;;27.19;57.68;94655.03;5032385;28;20798;-78
2022/07/26 04:32:50;;;;;;;15.57;14.00;;;;;;;27.33;57.28;94650.16;5032439;28;20451;-80
2022/07/26 04:35:16;;;;;;;15.73;13.17;;;;;;;27.55;56.65;94651.13;5033196;28;20458;-88
2022/07/26 04:37:44;;;;;;;15.03;13.43;;;;;;;27.76;57.20;94650.50;5033323;28;20455;-89
2022/07/26 04:40:15;;;;;;;15.10;13.27;;;;;;;28.12;55.27;94653.78;5032404;28;20457;-82
2022/07/26 04:42:43;;;;;;;14.03;12.63;;;;;;;28.42;54.00;94650.78;5032852;28;20458;-85
2022/07/26 04:45:11;;;;;;;14.33;12.90;;;;;;;28.59;53.86;94645.38;5032379;28;20447;-82
2022/07/26 04:47:40;;;;;;;15.30;13.90;;;;;;;28.76;54.28;94648.03;5032749;28;20836;-81
2022/07/26 04:50:09;;;;;;;13.80;12.53;;;;;;;28.99;58.29;94651.38;5034640;28;20528;-84
2022/07/26 04:52:36;;;;;;;18.10;15.87;;;;;;;28.81;52.15;94651.63;5035784;28;20842;-82
2022/07/26 04:55:03;;;;;;;18.00;15.10;;;;;;;28.41;53.32;94651.03;5036262;28;20512;-84
2022/07/26 04:57:30;;;;;;;18.00;13.83;;;;;;;28.51;54.40;94643.09;5035933;28;20446;-83
2022/07/26 04:59:57;;;;;;;14.60;13.30;;;;;;;28.78;56.00;94645.91;5001383;28;20450;-87
2022/07/26 05:02:24;;;;;;;14.60;13.30;;;;;;;29.10;52.41;94656.91;5036271;28;20553;-84
2022/07/26 05:04:51;;;;;;;18.70;13.97;;;;;;;29.29;51.93;94655.53;5035826;28;20450;-80
2022/07/26 05:07:19;;;;;;;14.93;13.53;;;;;;;29.48;51.41;94651.44;5035695;28;20917;-83
2022/07/26 05:09:46;;;;;;;15.47;13.97;;;;;;;29.65;50.66;94643.25;5035632;28;20483;-83
2022/07/26 05:12:12;;;;;;;14.30;13.00;;;;;;;29.88;51.09;94655.69;5035562;28;20446;-83
2022/07/26 05:14:39;;;;;;;14.13;12.87;;;;;;;30.02;49.93;94651.47;5035597;28;20462;-82
2022/07/26 05:17:06;;;;;;;15.47;13.93;;;;;;;30.12;50.50;94651.59;5035370;28;20872;-81
2022/07/26 05:19:33;;;;;;;13.23;11.80;;;;;;;30.37;49.70;94644.78;5034677;28;20449;-82
2022/07/26 05:22:00;;;;;;;14.13;12.83;;;;;;;30.57;48.92;94634.06;5032221;28;20517;-84
2022/07/26 05:24:28;;;;;;;16.90;13.50;;;;;;;30.72;48.26;94639.63;5034526;28;20448;-83
2022/07/26 05:26:55;;;;;;;16.77;15.10;;;;;;;30.58;49.20;94640.31;5034312;28;20454;-80
2022/07/26 05:29:21;;;;;;;18.20;14.60;;;;;;;30.39;49.62;94638.03;5034292;28;20486;-83
2022/07/26 05:31:49;;;;;;;15.40;13.90;;;;;;;30.08;50.24;94639.66;5034086;28;20450;-83
2022/07/26 05:34:15;;;;;;;21.93;14.40;;;;;;;29.95;50.93;94640.03;5034107;28;20479;-84
2022/07/26 05:36:42;;;;;;;17.13;14.30;;;;;;;29.80;51.02;94631.78;5034367;28;20930;-84
2022/07/26 05:39:09;;;;;;;16.30;14.37;;;;;;;29.98;51.50;94639.53;5034372;28;20807;-82
2022/07/26 05:41:37;;;;;;;15.73;14.00;;;;;;;30.32;50.47;94636.59;5034119;28;20453;-83
2022/07/26 05:44:04;;;;;;;15.33;13.83;;;;;;;30.53;50.69;94644.63;5034113;28;20470;-82
2022/07/26 05:46:31;;;;;;;16.10;14.30;;;;;;;30.63;49.60;94643.88;5048198;28;20495;-84
2022/07/26 05:48:58;;;;;;;19.20;14.10;;;;;;;30.70;49.18;94638.25;5033954;28;20486;-84
2022/07/26 05:51:24;;;;;;;15.80;14.30;;;;;;;30.97;48.51;94635.44;5033573;28;20969;-83
2022/07/26 05:53:51;;;;;;;19.03;14.07;;;;;;;31.17;48.09;94632.84;5033762;28;20426;-82
2022/07/26 05:56:19;;;;;;;16.10;14.40;;;;;;;31.31;48.11;94633.19;5034030;28;20498;-83
2022/07/26 05:58:47;;;;;;;16.13;14.50;;;;;;;30.87;47.76;94635.38;5033713;28;20454;-82
2022/07/26 06:01:14;;;;;;;16.60;14.37;;;;;;;31.01;48.93;94628.41;5032584;28;20458;-83
2022/07/26 06:03:41;;;;;;;15.30;13.70;;;;;;;31.12;48.97;94628.19;5033633;28;20512;-83
2022/07/26 06:06:08;;;;;;;16.67;14.67;;;;;;;31.46;47.93;94621.56;5033275;28;20447;-84
2022/07/26 06:08:36;;;;;;;17.73;15.83;;;;;;;31.66;46.82;94621.63;5033310;28;20489;-81
2022/07/26 06:11:02;;;;;;;16.97;15.17;;;;;;;31.90;47.08;94622.78;5033344;28;20457;-83
2022/07/26 06:13:29;;;;;;;17.60;15.80;;;;;;;31.90;45.38;94614.66;5033699;28;20447;-84
2022/07/26 06:15:57;;;;;;;21.97;14.97;;;;;;;31.86;46.63;94610.03;4998357;28;20446;-84
2022/07/26 06:18:24;;;;;;;17.80;15.77;;;;;;;31.93;46.84;94611.38;5033232;28;20808;-83
2022/07/26 06:20:52;;;;;;;24.23;16.77;;;;;;;31.88;46.86;94611.38;4998790;28;20450;-84
2022/07/26 06:23:18;;;;;;;18.10;15.53;;;;;;;31.91;46.14;94607.31;5033389;28;20449;-84
2022/07/26 06:25:45;;;;;;;24.70;15.00;;;;;;;31.95;45.89;94605.69;5032975;28;20870;-84
2022/07/26 06:28:12;;;;;;;18.23;15.37;;;;;;;31.71;46.29;94603.47;5033272;28;20482;-84
2022/07/26 06:30:39;;;;;;;17.40;14.93;;;;;;;31.69;45.50;94602.91;5032775;28;20450;-82
2022/07/26 06:33:08;;;;;;;24.10;15.20;;;;;;;31.48;46.82;94593.06;5033150;28;20957;-83
2022/07/26 06:35:37;;;;;;;20.40;14.40;;;;;;;31.73;46.50;94608.63;5033170;28;20451;-84
2022/07/26 06:38:05;;;;;;;22.97;15.83;;;;;;;31.92;46.29;94611.66;5033257;28;20464;-79
2022/07/26 06:40:32;;;;;;;17.77;14.40;;;;;;;31.78;46.30;94597.78;5032957;28;20861;-84
2022/07/26 06:42:59;;;;;;;17.77;14.37;;;;;;;31.95;46.65;94603.78;5032725;28;20988;-84
2022/07/26 06:45:26;;;;;;;16.37;14.67;;;;;;;32.12;46.33;94600.81;5030973;28;20913;-85
2022/07/26 06:47:53;;;;;;;19.80;15.80;;;;;;;32.26;46.49;94601.91;5033274;28;20454;-84
2022/07/26 06:50:22;;;;;;;25.50;15.93;;;;;;;31.64;46.03;94596.66;5032885;28;20475;-83
2022/07/26 06:52:49;;;;;;;18.50;15.70;;;;;;;31.78;46.51;94597.78;5032951;28;20462;-80
2022/07/26 06:55:16;;;;;;;20.30;17.07;;;;;;;31.96;46.60;94602.69;5032599;28;20455;-82
2022/07/26 06:57:42;;;;;;;22.03;14.87;;;;;;;32.14;45.88;94601.34;5032843;28;20451;-82
2022/07/26 07:00:10;;;;;;;20.30;15.47;;;;;;;32.36;45.33;94598.38;5032410;28;20446;-84
2022/07/26 07:02:37;;;;;;;18.47;15.40;;;;;;;32.25;45.08;94608.44;5032395;28;20458;-83
2022/07/26 07:05:05;;;;;;;19.10;15.60;;;;;;;32.25;45.81;94596.72;5032317;28;20457;-83
2022/07/26 07:07:35;;;;;;;17.47;15.63;;;;;;;32.60;45.87;94594.00;5032369;28;20462;-84
2022/07/26 07:10:02;;;;;;;17.43;13.70;;;;;;;32.71;44.82;94597.53;5032785;28;20544;-84
2022/07/26 07:12:29;;;;;;;16.27;14.33;;;;;;;32.66;44.49;94603.75;5032487;28;20451;-82
2022/07/26 07:14:56;;;;;;;18.00;13.60;;;;;;;32.71;44.43;94604.88;5032492;28;20450;-83
2022/07/26 07:17:23;;;;;;;18.63;14.83;;;;;;;32.76;44.36;94600.22;5032339;28;20443;-83
2022/07/26 07:19:49;;;;;;;18.10;15.00;;;;;;;33.03;44.88;94601.81;5032388;28;20443;-83
2022/07/26 07:22:16;;;;;;;15.40;12.43;;;;;;;33.36;43.65;94597.63;5032505;28;20521;-82
2022/07/26 07:24:44;;;;;;;16.07;13.17;;;;;;;33.64;42.62;94601.56;4997454;28;20445;-83
2022/07/26 07:27:11;;;;;;;19.90;14.20;;;;;;;33.72;42.05;94598.25;5032412;28;20863;-83
2022/07/26 07:29:40;;;;;;;15.00;12.80;;;;;;;33.55;41.17;94598.63;4997305;28;20505;-82
2022/07/26 07:32:06;;;;;;;18.73;15.43;;;;;;;33.15;43.30;94597.69;5032108;28;20938;-83
2022/07/26 07:34:33;;;;;;;20.60;13.13;;;;;;;32.60;43.27;94602.16;5032307;28;20446;-83
2022/07/26 07:37:00;;;;;;;17.43;14.20;;;;;;;32.19;44.54;94593.22;5032103;28;20471;-82
2022/07/26 07:39:27;;;;;;;16.37;14.67;;;;;;;32.15;45.87;94594.03;5031992;28;20787;-80
2022/07/26 07:41:55;;;;;;;15.80;14.20;;;;;;;32.45;44.17;94596.75;5032143;28;20455;-83
2022/07/26 07:44:22;;;;;;;16.40;13.00;;;;;;;32.83;44.37;94597.25;5032163;28;20446;-83
2022/07/26 07:46:49;;;;;;;15.33;13.90;;;;;;;33.11;42.90;94599.34;5032286;28;20458;-83
2022/07/26 07:49:15;;;;;;;19.30;14.97;;;;;;;33.44;43.92;94602.47;5031853;28;20486;-84
2022/07/26 07:51:42;;;;;;;15.47;13.67;;;;;;;33.65;41.57;94587.66;5031884;28;20522;-83
2022/07/26 07:54:09;;;;;;;15.50;14.00;;;;;;;33.79;41.87;94585.13;5031995;28;20513;-82
2022/07/26 07:56:36;;;;;;;16.00;14.50;;;;;;;33.63;41.08;94580.88;5031620;28;20447;-83
2022/07/26 07:59:04;;;;;;;14.53;13.13;;;;;;;33.66;40.68;94575.69;5031810;28;20458;-84
2022/07/26 08:01:31;;;;;;;17.50;14.27;;;;;;;33.48;40.65;94576.34;5031903;28;20458;-82
2022/07/26 08:03:58;;;;;;;15.80;14.20;;;;;;;33.29;40.93;94573.44;5031965;28;20461;-83
2022/07/26 08:06:25;;;;;;;20.47;14.80;;;;;;;33.51;41.99;94581.22;5031865;28;20524;-83
2022/07/26 08:08:52;;;;;;;16.50;14.77;;;;;;;33.71;41.63;94575.66;5031396;28;20491;-83
2022/07/26 08:11:18;;;;;;;19.90;14.17;;;;;;;34.00;41.01;94583.09;5032085;28;20450;-81
2022/07/26 08:13:45;;;;;;;16.60;14.97;;;;;;;34.13;41.21;94568.84;5031883;28;20454;-85
2022/07/26 08:16:13;;;;;;;16.27;13.77;;;;;;;34.19;40.35;94570.44;5031774;28;20453;-83
2022/07/26 08:18:40;;;;;;;15.53;13.93;;;;;;;33.62;40.72;94574.63;5031435;28;20529;-83
2022/07/26 08:21:07;;;;;;;14.40;13.20;;;;;;;33.71;41.13;94556.59;5031578;28;20446;-83
2022/07/26 08:23:34;;;;;;;16.83;13.77;;;;;;;33.94;41.25;94554.28;5031580;28;20992;-83
2022/07/26 08:26:01;;;;;;;18.33;14.70;;;;;;;33.98;40.40;94560.78;5035152;28;20453;-84
2022/07/26 08:28:29;;;;;;;17.60;14.20;;;;;;;33.95;40.55;94550.47;5035571;28;20453;-82
2022/07/26 08:30:56;;;;;;;15.37;14.07;;;;;;;34.00;40.01;94553.16;5035931;28;20739;-83
2022/07/26 08:33:24;;;;;;;15.97;14.37;;;;;;;34.00;40.79;94547.72;5035045;28;20455;-83
2022/07/26 08:35:51;;;;;;;15.40;14.10;;;;;;;33.98;41.93;94547.19;5038368;28;20450;-82
2022/07/26 08:38:18;;;;;;;16.57;14.87;;;;;;;33.64;42.42;94552.56;5035547;28;20438;-83
2022/07/26 08:40:44;;;;;;;17.17;14.77;;;;;;;33.61;41.78;94542.25;5035107;28;20450;-82
2022/07/26 08:43:11;;;;;;;15.70;14.03;;;;;;;33.50;42.02;94547.75;5035638;28;20577;-83
2022/07/26 08:45:38;;;;;;;15.50;14.17;;;;;;;33.68;40.92;94551.72;5035152;28;20451;-83
2022/07/26 08:48:05;;;;;;;14.80;13.50;;;;;;;33.91;40.60;94547.50;5049701;28;20442;-81
2022/07/26 08:50:33;;;;;;;17.83;13.40;;;;;;;34.20;40.68;94546.72;5035235;28;20502;-85
2022/07/26 08:53:05;;;;;;;14.00;12.70;;;;;;;34.12;38.55;94550.88;5035229;28;20485;-83
2022/07/26 08:55:32;;;;;;;14.70;12.63;;;;;;;34.07;37.82;94540.00;5035202;28;20853;-83
2022/07/26 08:57:59;;;;;;;14.27;13.00;;;;;;;33.94;37.26;94537.97;5034624;28;20442;-84
2022/07/26 09:00:28;;;;;;;22.27;13.27;;;;;;;33.90;38.93;94537.72;5034978;28;20798;-82
2022/07/26 09:02:56;;;;;;;14.97;12.30;;;;;;;33.77;38.59;94530.97;5034790;28;20451;-83
2022/07/26 09:05:27;;;;;;;16.23;13.60;;;;;;;33.86;38.84;94523.88;5034896;28;20454;-82
2022/07/26 09:07:56;;;;;;;13.47;12.07;;;;;;;33.92;39.43;94532.78;5034686;28;20812;-84
2022/07/26 09:10:23;;;;;;;17.60;12.67;;;;;;;33.56;37.91;94543.09;5034630;28;20572;-81
2022/07/26 09:12:54;;;;;;;13.57;12.37;;;;;;;32.87;38.58;94541.22;5034532;28;20446;-83
2022/07/26 09:15:24;;;;;;;14.97;13.10;;;;;;;33.12;39.43;94532.16;5034601;28;20451;-80
2022/07/26 09:17:52;;;;;;;14.90;13.40;;;;;;;33.35;38.26;94528.00;5034609;28;20852;-83
2022/07/26 09:20:22;;;;;;;17.00;13.03;;;;;;;33.49;38.00;94528.97;5034721;28;20443;-82
2022/07/26 09:23:05;;;;;;;18.77;15.67;;;;;;;33.49;36.60;94534.41;5034878;28;20489;-82
2022/07/26 09:25:34;;;;;;;14.20;12.80;;;;;;;33.62;37.56;94533.00;5034234;28;20847;-83
2022/07/26 09:28:02;;;;;;;15.97;14.30;;;;;;;33.73;37.66;94520.94;5034268;28;20933;-83
2022/07/26 09:30:30;;;;;;;18.50;13.70;;;;;;;33.78;39.04;94521.69;5034293;28;20827;-83
2022/07/26 09:33:00;;;;;;;15.63;14.23;;;;;;;33.60;37.31;94524.31;5034392;28;20450;-81
2022/07/26 09:35:28;;;;;;;15.90;14.40;;;;;;;33.46;37.40;94526.81;5034192;28;20930;-82
2022/07/26 09:37:55;;;;;;;15.63;14.23;;;;;;;33.31;37.57;94518.75;5034194;28;20447;-82
2022/07/26 09:40:23;;;;;;;17.03;14.87;;;;;;;33.30;38.10;94512.50;5034073;28;20462;-82
2022/07/26 09:42:57;;;;;;;16.50;14.97;;;;;;;33.48;38.47;94524.63;5033899;28;20454;-83
2022/07/26 09:45:25;;;;;;;13.87;12.47;;;;;;;33.51;36.18;94511.28;5034009;28;20450;-82
2022/07/26 09:47:52;;;;;;;16.40;13.30;;;;;;;33.56;36.73;94519.44;5033739;28;20973;-83
2022/07/26 09:50:21;;;;;;;13.77;12.60;;;;;;;33.51;35.34;94516.72;5033648;28;20494;-83
2022/07/26 09:52:58;;;;;;;15.73;12.33;;;;;;;33.46;35.81;94526.81;5033831;28;20458;-83
2022/07/26 09:55:26;;;;;;;15.53;13.93;;;;;;;33.47;36.45;94509.41;5034130;28;20442;-83
2022/07/26 09:57:54;;;;;;;17.10;14.27;;;;;;;33.39;36.17;94515.44;5034018;28;21025;-83
2022/07/26 10:00:21;;;;;;;15.50;13.90;;;;;;;33.31;36.24;94505.13;5033889;28;20442;-84
2022/07/26 10:02:47;;;;;;;19.90;13.47;;;;;;;33.12;36.88;94508.50;5033625;28;20438;-82
2022/07/26 10:05:14;;;;;;;16.80;15.00;;;;;;;33.02;37.21;94505.84;5033580;28;20443;-83
2022/07/26 10:07:42;;;;;;;14.50;13.10;;;;;;;32.86;37.06;94507.00;5033425;28;20952;-83
2022/07/26 10:10:14;;;;;;;18.30;15.23;;;;;;;32.81;36.76;94504.28;5031410;28;20493;-80
2022/07/26 10:12:45;;;;;;;14.80;13.40;;;;;;;32.76;36.61;94507.00;4998775;28;20450;-84
2022/07/26 10:15:33;;;;;;;15.50;14.00;;;;;;;32.63;36.92;94501.06;5033407;28;20454;-82
2022/07/26 10:18:00;;;;;;;15.90;14.40;;;;;;;32.52;37.13;94506.81;5033598;28;20506;-83
2022/07/26 10:20:42;;;;;;;16.73;15.00;;;;;;;32.56;37.60;94500.53;5031356;28;20447;-81
2022/07/26 10:23:38;;;;;;;15.67;14.07;;;;;;;32.39;37.54;94497.34;5033243;28;20507;-84
2022/07/26 10:26:07;;;;;;;15.03;13.60;;;;;;;32.34;38.63;94491.91;5033110;28;20450;-83
2022/07/26 10:28:37;;;;;;;27.03;13.70;;;;;;;32.41;37.71;94489.75;5033016;28;20442;-79
2022/07/26 10:31:31;;;;;;;15.70;14.20;;;;;;;32.59;38.11;94486.41;5033126;28;20498;-82
2022/07/26 10:34:00;;;;;;;16.73;15.00;;;;;;;32.73;37.04;94477.66;5033117;28;20454;-82
2022/07/26 10:36:31;;;;;;;16.90;14.40;;;;;;;32.90;38.01;94478.97;4998186;28;20972;-83
2022/07/26 10:39:04;;;;;;;17.10;14.77;;;;;;;32.97;37.17;94467.81;5033277;28;20466;-81
2022/07/26 10:41:33;;;;;;;15.13;13.60;;;;;;;32.84;36.46;94473.84;5033015;28;20451;-83
2022/07/26 10:44:20;;;;;;;14.97;13.57;;;;;;;32.85;37.04;94470.84;5030641;28;20930;-83
2022/07/26 10:47:10;;;;;;;15.00;13.53;;;;;;;32.80;36.84;94470.06;5032269;28;20549;-83
2022/07/26 10:49:38;;;;;;;13.67;12.43;;;;;;;32.81;37.42;94464.34;5032831;28;20521;-83
2022/07/26 10:52:16;;;;;;;18.23;13.67;;;;;;;32.85;38.67;94467.31;5033031;28;20435;-83
2022/07/26 10:55:17;;;;;;;21.30;16.17;;;;;;;32.94;37.72;94462.91;5032907;28;20447;-83
2022/07/26 10:57:46;;;;;;;15.73;14.43;;;;;;;32.87;36.13;94456.97;5032763;28;20450;-82
2022/07/26 11:00:17;;;;;;;14.83;13.40;;;;;;;32.82;37.59;94443.41;5032845;28;20454;-83
2022/07/26 11:02:49;;;;;;;18.27;15.00;;;;;;;32.83;37.46;94453.19;4997805;28;20952;-84
2022/07/26 11:05:18;;;;;;;18.87;15.97;;;;;;;32.90;37.82;94435.47;5032611;28;20453;-83
2022/07/26 11:07:57;;;;;;;16.40;14.77;;;;;;;33.06;38.01;94441.66;5032662;28;20442;-83
2022/07/26 11:10:30;;;;;;;17.67;15.77;;;;;;;33.22;38.59;94436.91;5032450;28;20489;-82
2022/07/26 11:13:12;;;;;;;16.47;14.73;;;;;;;33.28;36.81;94424.09;5032585;28;20447;-80
2022/07/26 11:15:44;;;;;;;16.93;15.23;;;;;;;33.32;37.01;94422.47;5032802;28;20450;-81
2022/07/26 11:18:20;;;;;;;16.53;14.93;;;;;;;33.30;36.33;94414.56;5032264;28;20450;-83
2022/07/26 11:20:49;;;;;;;16.90;15.20;;;;;;;33.41;37.19;94418.84;5032165;28;20476;-83
2022/07/26 11:23:32;;;;;;;14.13;12.70;;;;;;;33.40;36.87;94416.41;5032511;28;20442;-83
2022/07/26 11:26:06;;;;;;;18.33;15.60;;;;;;;33.38;36.85;94418.59;5032145;28;20508;-83
2022/07/26 11:28:50;;;;;;;18.17;15.47;;;;;;;33.38;37.71;94413.97;5032356;28;20451;-85